Disautel, Washington
Current Conditions -  °F | °C
As of 4:53 PM on Monday 22 Dec 2014 (Local Time) from KOMK Reporting Station
Clear Clear  
Wind Chill: 32°   Ceiling: Unl
Heat Index: 37°   Visibility: 10mi
Dew Point: 29°   Wind: 6mph
Humidity: 73%   Direction: 280°W
Pressure: 30.31"   Gusts: NA
Location:  48.4274°N, 119.524°W
Report Text: KOMK 230053Z AUTO 28005KT 10SM CLR 03/M02 A3031 RMK AO2 SLP277 T00281017
Loading
Personal Weather Stations






























Interactive Weather Map New forecast layout! Learn more

10-Day Weather Forecast

Advertisements
Track Severe Weather on mobile